sensor_id;sensor_type;location;lat;lon;timestamp;temperature;humidity
15617;DHT22;7908;51.688;7.130;2023-03-01T00:02:04;-2.80;99.90
15617;DHT22;7908;51.688;7.130;2023-03-01T00:04:33;-2.90;99.90
15617;DHT22;7908;51.688;7.130;2023-03-01T00:07:05;-2.90;99.90
15617;DHT22;7908;51.688;7.130;2023-03-01T00:09:35;-2.90;99.90
15617;DHT22;7908;51.688;7.130;2023-03-01T00:12:04;-2.90;99.90
15617;DHT22;7908;51.688;7.130;2023-03-01T00:14:33;-3.00;99.90
15617;DHT22;7908;51.688;7.130;2023-03-01T00:17:02;-3.00;99.90
15617;DHT22;7908;51.688;7.130;2023-03-01T00:19:31;-3.00;99.90
15617;DHT22;7908;51.688;7.130;2023-03-01T00:22:00;-3.00;99.90
15617;DHT22;7908;51.688;7.130;2023-03-01T00:24:30;-3.00;99.90
15617;DHT22;7908;51.688;7.130;2023-03-01T00:26:59;-3.10;99.90
15617;DHT22;7908;51.688;7.130;2023-03-01T00:29:28;-3.00;99.90
15617;DHT22;7908;51.688;7.130;2023-03-01T00:31:56;-3.10;99.90
15617;DHT22;7908;51.688;7.130;2023-03-01T00:34:25;-3.10;99.90
15617;DHT22;7908;51.688;7.130;2023-03-01T00:36:54;-3.10;99.90
15617;DHT22;7908;51.688;7.130;2023-03-01T00:39:33;-3.10;99.90
15617;DHT22;7908;51.688;7.130;2023-03-01T00:42:02;-3.20;99.90
15617;DHT22;7908;51.688;7.130;2023-03-01T00:44:31;-3.20;99.90
15617;DHT22;7908;51.688;7.130;2023-03-01T00:47:01;-3.20;99.90
15617;DHT22;7908;51.688;7.130;2023-03-01T00:49:30;-3.20;99.90
15617;DHT22;7908;51.688;7.130;2023-03-01T00:51:58;-3.20;99.90
15617;DHT22;7908;51.688;7.130;2023-03-01T00:54:27;-3.30;99.90
15617;DHT22;7908;51.688;7.130;2023-03-01T00:56:57;-3.30;99.90
15617;DHT22;7908;51.688;7.130;2023-03-01T00:59:26;-3.30;99.90
15617;DHT22;7908;51.688;7.130;2023-03-01T01:01:54;-3.30;99.90
15617;DHT22;7908;51.688;7.130;2023-03-01T01:04:23;-3.30;99.90
15617;DHT22;7908;51.688;7.130;2023-03-01T01:06:51;-3.30;99.90
15617;DHT22;7908;51.688;7.130;2023-03-01T01:09:21;-3.30;99.90
15617;DHT22;7908;51.688;7.130;2023-03-01T01:11:50;-3.30;99.90
15617;DHT22;7908;51.688;7.130;2023-03-01T01:14:20;-3.30;99.90
15617;DHT22;7908;51.688;7.130;2023-03-01T01:16:49;-3.40;99.90
15617;DHT22;7908;51.688;7.130;2023-03-01T01:19:18;-3.40;99.90
15617;DHT22;7908;51.688;7.130;2023-03-01T01:21:47;-3.40;99.90
15617;DHT22;7908;51.688;7.130;2023-03-01T01:24:16;-3.40;99.90
15617;DHT22;7908;51.688;7.130;2023-03-01T01:26:45;-3.40;99.90
15617;DHT22;7908;51.688;7.130;2023-03-01T01:29:14;-3.40;99.90
15617;DHT22;7908;51.688;7.130;2023-03-01T01:31:44;-3.40;99.90
15617;DHT22;7908;51.688;7.130;2023-03-01T01:34:15;-3.40;99.90
15617;DHT22;7908;51.688;7.130;2023-03-01T01:36:47;-3.40;99.90
15617;DHT22;7908;51.688;7.130;2023-03-01T01:39:16;-3.40;99.90
15617;DHT22;7908;51.688;7.130;2023-03-01T01:41:45;-3.50;99.90
15617;DHT22;7908;51.688;7.130;2023-03-01T01:44:17;-3.50;99.90
15617;DHT22;7908;51.688;7.130;2023-03-01T01:46:50;-3.60;99.90
15617;DHT22;7908;51.688;7.130;2023-03-01T01:49:24;-3.60;99.90
15617;DHT22;7908;51.688;7.130;2023-03-01T01:52:00;-3.60;99.90
15617;DHT22;7908;51.688;7.130;2023-03-01T01:54:35;-3.60;99.90
15617;DHT22;7908;51.688;7.130;2023-03-01T01:57:09;-3.60;99.90
15617;DHT22;7908;51.688;7.130;2023-03-01T01:59:39;-3.60;99.90
15617;DHT22;7908;51.688;7.130;2023-03-01T02:02:12;-3.60;99.90
15617;DHT22;7908;51.688;7.130;2023-03-01T02:04:41;-3.70;99.90
15617;DHT22;7908;51.688;7.130;2023-03-01T02:07:15;-3.60;99.90
15617;DHT22;7908;51.688;7.130;2023-03-01T02:09:47;-3.70;99.90
15617;DHT22;7908;51.688;7.130;2023-03-01T02:12:18;-3.60;99.90
15617;DHT22;7908;51.688;7.130;2023-03-01T02:14:47;-3.70;99.90
15617;DHT22;7908;51.688;7.130;2023-03-01T02:17:18;-3.70;99.90
15617;DHT22;7908;51.688;7.130;2023-03-01T02:19:59;-3.70;99.90
15617;DHT22;7908;51.688;7.130;2023-03-01T02:22:36;-3.80;99.90
15617;DHT22;7908;51.688;7.130;2023-03-01T02:27:52;-3.80;99.90
15617;DHT22;7908;51.688;7.130;2023-03-01T02:30:26;-3.80;99.90
15617;DHT22;7908;51.688;7.130;2023-03-01T02:32:57;-3.80;99.90
15617;DHT22;7908;51.688;7.130;2023-03-01T02:35:32;-3.80;99.90
15617;DHT22;7908;51.688;7.130;2023-03-01T02:38:03;-3.80;99.90
15617;DHT22;7908;51.688;7.130;2023-03-01T02:40:36;-3.80;99.90
15617;DHT22;7908;51.688;7.130;2023-03-01T02:43:09;-3.90;99.90
15617;DHT22;7908;51.688;7.130;2023-03-01T02:45:47;-3.90;99.90
15617;DHT22;7908;51.688;7.130;2023-03-01T02:48:16;-3.90;99.90
15617;DHT22;7908;51.688;7.130;2023-03-01T02:50:56;-3.90;99.90
15617;DHT22;7908;51.688;7.130;2023-03-01T02:53:41;-3.90;99.90
15617;DHT22;7908;51.688;7.130;2023-03-01T02:56:13;-3.90;99.90
15617;DHT22;7908;51.688;7.130;2023-03-01T02:58:43;-4.00;99.90
15617;DHT22;7908;51.688;7.130;2023-03-01T03:01:16;-4.00;99.90
15617;DHT22;7908;51.688;7.130;2023-03-01T03:03:45;-4.00;99.90
15617;DHT22;7908;51.688;7.130;2023-03-01T03:06:14;-4.00;99.90
15617;DHT22;7908;51.688;7.130;2023-03-01T03:08:42;-3.90;99.90
15617;DHT22;7908;51.688;7.130;2023-03-01T03:11:11;-4.00;99.90
15617;DHT22;7908;51.688;7.130;2023-03-01T03:13:39;-4.00;99.90
15617;DHT22;7908;51.688;7.130;2023-03-01T03:16:19;-4.00;99.90
15617;DHT22;7908;51.688;7.130;2023-03-01T03:18:48;-4.00;99.90
15617;DHT22;7908;51.688;7.130;2023-03-01T03:21:17;-4.00;99.90
15617;DHT22;7908;51.688;7.130;2023-03-01T03:23:45;-4.00;99.90
15617;DHT22;7908;51.688;7.130;2023-03-01T03:26:14;-4.10;99.90
15617;DHT22;7908;51.688;7.130;2023-03-01T03:28:42;-4.10;99.90
15617;DHT22;7908;51.688;7.130;2023-03-01T03:31:11;-4.10;99.90
15617;DHT22;7908;51.688;7.130;2023-03-01T03:33:41;-4.20;99.90
15617;DHT22;7908;51.688;7.130;2023-03-01T03:36:15;-4.10;99.90
15617;DHT22;7908;51.688;7.130;2023-03-01T03:38:45;-4.10;99.90
15617;DHT22;7908;51.688;7.130;2023-03-01T03:41:14;-4.10;99.90
15617;DHT22;7908;51.688;7.130;2023-03-01T03:43:43;-4.10;99.90
15617;DHT22;7908;51.688;7.130;2023-03-01T03:46:12;-4.00;99.90
15617;DHT22;7908;51.688;7.130;2023-03-01T03:48:44;-4.00;99.90
15617;DHT22;7908;51.688;7.130;2023-03-01T03:51:14;-4.00;99.90
15617;DHT22;7908;51.688;7.130;2023-03-01T03:53:43;-4.00;99.90
15617;DHT22;7908;51.688;7.130;2023-03-01T03:56:12;-4.00;99.90
15617;DHT22;7908;51.688;7.130;2023-03-01T03:58:41;-4.10;99.90
15617;DHT22;7908;51.688;7.130;2023-03-01T04:01:09;-4.10;99.90
15617;DHT22;7908;51.688;7.130;2023-03-01T04:03:38;-4.20;99.90
15617;DHT22;7908;51.688;7.130;2023-03-01T04:06:08;-4.20;99.90
15617;DHT22;7908;51.688;7.130;2023-03-01T04:08:36;-4.20;99.90
15617;DHT22;7908;51.688;7.130;2023-03-01T04:11:08;-4.30;99.90
15617;DHT22;7908;51.688;7.130;2023-03-01T04:13:58;-4.30;99.90
15617;DHT22;7908;51.688;7.130;2023-03-01T04:16:27;-4.30;99.90
15617;DHT22;7908;51.688;7.130;2023-03-01T04:18:56;-4.30;99.90
15617;DHT22;7908;51.688;7.130;2023-03-01T04:21:28;-4.30;99.90
15617;DHT22;7908;51.688;7.130;2023-03-01T04:23:56;-4.30;99.90
15617;DHT22;7908;51.688;7.130;2023-03-01T04:26:25;-4.40;99.90
15617;DHT22;7908;51.688;7.130;2023-03-01T04:28:54;-4.40;99.90
15617;DHT22;7908;51.688;7.130;2023-03-01T04:31:23;-4.40;99.90
15617;DHT22;7908;51.688;7.130;2023-03-01T04:33:53;-4.40;99.90
15617;DHT22;7908;51.688;7.130;2023-03-01T04:36:26;-4.40;99.90
15617;DHT22;7908;51.688;7.130;2023-03-01T04:38:56;-4.40;99.90
15617;DHT22;7908;51.688;7.130;2023-03-01T04:41:25;-4.40;99.90
15617;DHT22;7908;51.688;7.130;2023-03-01T04:43:54;-4.40;99.90
15617;DHT22;7908;51.688;7.130;2023-03-01T04:46:22;-4.40;99.90
15617;DHT22;7908;51.688;7.130;2023-03-01T04:48:52;-4.40;99.90
15617;DHT22;7908;51.688;7.130;2023-03-01T04:51:21;-4.40;99.90
15617;DHT22;7908;51.688;7.130;2023-03-01T04:53:49;-4.40;99.90
15617;DHT22;7908;51.688;7.130;2023-03-01T04:56:20;-4.40;99.90
15617;DHT22;7908;51.688;7.130;2023-03-01T04:58:52;-4.30;99.90
15617;DHT22;7908;51.688;7.130;2023-03-01T05:01:22;-4.30;99.90
15617;DHT22;7908;51.688;7.130;2023-03-01T05:03:51;-4.30;99.90
15617;DHT22;7908;51.688;7.130;2023-03-01T05:06:20;-4.30;99.90
15617;DHT22;7908;51.688;7.130;2023-03-01T05:08:49;-4.30;99.90
15617;DHT22;7908;51.688;7.130;2023-03-01T05:11:19;-4.30;99.90
15617;DHT22;7908;51.688;7.130;2023-03-01T05:13:47;-4.30;99.90
15617;DHT22;7908;51.688;7.130;2023-03-01T05:16:16;-4.40;99.90
15617;DHT22;7908;51.688;7.130;2023-03-01T05:18:47;-4.30;99.90
15617;DHT22;7908;51.688;7.130;2023-03-01T05:21:18;-4.30;99.90
15617;DHT22;7908;51.688;7.130;2023-03-01T05:23:47;-4.30;99.90
15617;DHT22;7908;51.688;7.130;2023-03-01T05:26:16;-4.30;99.90
15617;DHT22;7908;51.688;7.130;2023-03-01T05:28:56;-4.30;99.90
15617;DHT22;7908;51.688;7.130;2023-03-01T05:31:26;-4.30;99.90
15617;DHT22;7908;51.688;7.130;2023-03-01T05:33:55;-4.30;99.90
15617;DHT22;7908;51.688;7.130;2023-03-01T05:36:24;-4.30;99.90
15617;DHT22;7908;51.688;7.130;2023-03-01T05:38:52;-4.30;99.90
15617;DHT22;7908;51.688;7.130;2023-03-01T05:41:21;-4.30;99.90
15617;DHT22;7908;51.688;7.130;2023-03-01T05:43:49;-4.40;99.90
15617;DHT22;7908;51.688;7.130;2023-03-01T05:46:19;-4.40;99.90
15617;DHT22;7908;51.688;7.130;2023-03-01T05:48:51;-4.40;99.90
15617;DHT22;7908;51.688;7.130;2023-03-01T05:51:20;-4.40;99.90
15617;DHT22;7908;51.688;7.130;2023-03-01T05:53:49;-4.50;99.90
15617;DHT22;7908;51.688;7.130;2023-03-01T05:56:17;-4.60;99.90
15617;DHT22;7908;51.688;7.130;2023-03-01T05:58:48;-4.50;99.90
15617;DHT22;7908;51.688;7.130;2023-03-01T06:01:16;-4.50;99.90
15617;DHT22;7908;51.688;7.130;2023-03-01T06:03:47;-4.50;99.90
15617;DHT22;7908;51.688;7.130;2023-03-01T06:06:15;-4.60;99.90
15617;DHT22;7908;51.688;7.130;2023-03-01T06:08:44;-4.60;99.90
15617;DHT22;7908;51.688;7.130;2023-03-01T06:11:12;-4.60;99.90
15617;DHT22;7908;51.688;7.130;2023-03-01T06:13:41;-4.60;99.90
15617;DHT22;7908;51.688;7.130;2023-03-01T06:16:10;-4.60;99.90
15617;DHT22;7908;51.688;7.130;2023-03-01T06:18:40;-4.60;99.90
15617;DHT22;7908;51.688;7.130;2023-03-01T06:21:10;-4.70;99.90
15617;DHT22;7908;51.688;7.130;2023-03-01T06:23:39;-4.70;99.90
15617;DHT22;7908;51.688;7.130;2023-03-01T06:26:08;-4.70;99.90
15617;DHT22;7908;51.688;7.130;2023-03-01T06:28:36;-4.70;99.90
15617;DHT22;7908;51.688;7.130;2023-03-01T06:31:05;-4.70;99.90
15617;DHT22;7908;51.688;7.130;2023-03-01T06:33:36;-4.60;99.90
15617;DHT22;7908;51.688;7.130;2023-03-01T06:36:05;-4.70;99.90
15617;DHT22;7908;51.688;7.130;2023-03-01T06:38:35;-4.70;99.90
15617;DHT22;7908;51.688;7.130;2023-03-01T06:41:04;-4.70;99.90
15617;DHT22;7908;51.688;7.130;2023-03-01T06:43:34;-4.70;99.90
15617;DHT22;7908;51.688;7.130;2023-03-01T06:46:04;-4.70;99.90
15617;DHT22;7908;51.688;7.130;2023-03-01T06:48:34;-4.70;99.90
15617;DHT22;7908;51.688;7.130;2023-03-01T06:51:03;-4.60;99.90
15617;DHT22;7908;51.688;7.130;2023-03-01T06:53:31;-4.60;99.90
15617;DHT22;7908;51.688;7.130;2023-03-01T06:56:01;-4.60;99.90
15617;DHT22;7908;51.688;7.130;2023-03-01T06:58:30;-4.60;99.90
15617;DHT22;7908;51.688;7.130;2023-03-01T07:00:59;-4.50;99.90
15617;DHT22;7908;51.688;7.130;2023-03-01T07:03:27;-4.50;99.90
15617;DHT22;7908;51.688;7.130;2023-03-01T07:05:56;-4.40;99.90
15617;DHT22;7908;51.688;7.130;2023-03-01T07:08:24;-4.40;99.90
15617;DHT22;7908;51.688;7.130;2023-03-01T07:10:55;-4.40;99.90
15617;DHT22;7908;51.688;7.130;2023-03-01T07:13:26;-4.40;99.90
15617;DHT22;7908;51.688;7.130;2023-03-01T07:15:55;-4.30;99.90
15617;DHT22;7908;51.688;7.130;2023-03-01T07:18:24;-4.20;99.90
15617;DHT22;7908;51.688;7.130;2023-03-01T07:20:53;-4.20;99.90
15617;DHT22;7908;51.688;7.130;2023-03-01T07:23:22;-4.10;99.90
15617;DHT22;7908;51.688;7.130;2023-03-01T07:25:54;-4.00;99.90
15617;DHT22;7908;51.688;7.130;2023-03-01T07:28:25;-3.90;99.90
15617;DHT22;7908;51.688;7.130;2023-03-01T07:30:54;-3.90;99.90
15617;DHT22;7908;51.688;7.130;2023-03-01T07:33:23;-3.80;99.90
15617;DHT22;7908;51.688;7.130;2023-03-01T07:35:56;-3.70;99.90
15617;DHT22;7908;51.688;7.130;2023-03-01T07:38:27;-3.60;99.90
15617;DHT22;7908;51.688;7.130;2023-03-01T07:40:58;-3.60;99.90
15617;DHT22;7908;51.688;7.130;2023-03-01T07:43:30;-3.50;99.90
15617;DHT22;7908;51.688;7.130;2023-03-01T07:46:02;-3.40;99.90
15617;DHT22;7908;51.688;7.130;2023-03-01T07:48:32;-3.30;99.90
15617;DHT22;7908;51.688;7.130;2023-03-01T07:51:03;-3.20;99.90
15617;DHT22;7908;51.688;7.130;2023-03-01T07:53:34;-3.10;99.90
15617;DHT22;7908;51.688;7.130;2023-03-01T07:56:04;-2.90;99.90
15617;DHT22;7908;51.688;7.130;2023-03-01T07:58:36;-2.80;99.90
15617;DHT22;7908;51.688;7.130;2023-03-01T08:01:06;-2.70;99.90
15617;DHT22;7908;51.688;7.130;2023-03-01T08:03:36;-2.50;99.90
15617;DHT22;7908;51.688;7.130;2023-03-01T08:06:06;-2.40;99.90
15617;DHT22;7908;51.688;7.130;2023-03-01T08:08:36;-2.30;99.90
15617;DHT22;7908;51.688;7.130;2023-03-01T08:11:07;-2.20;99.90
15617;DHT22;7908;51.688;7.130;2023-03-01T08:13:37;-2.10;99.90
15617;DHT22;7908;51.688;7.130;2023-03-01T08:16:09;-2.00;99.90
15617;DHT22;7908;51.688;7.130;2023-03-01T08:18:38;-1.80;99.90
15617;DHT22;7908;51.688;7.130;2023-03-01T08:21:08;-1.70;99.90
15617;DHT22;7908;51.688;7.130;2023-03-01T08:23:38;-1.50;99.90
15617;DHT22;7908;51.688;7.130;2023-03-01T08:26:10;-1.40;99.90
15617;DHT22;7908;51.688;7.130;2023-03-01T08:28:41;-1.30;99.90
15617;DHT22;7908;51.688;7.130;2023-03-01T08:31:17;-1.10;99.90
15617;DHT22;7908;51.688;7.130;2023-03-01T08:33:47;-0.90;99.90
15617;DHT22;7908;51.688;7.130;2023-03-01T08:36:18;-0.70;99.90
15617;DHT22;7908;51.688;7.130;2023-03-01T08:38:48;-0.60;99.90
15617;DHT22;7908;51.688;7.130;2023-03-01T08:41:17;-0.50;99.90
15617;DHT22;7908;51.688;7.130;2023-03-01T08:43:47;-0.30;99.90
15617;DHT22;7908;51.688;7.130;2023-03-01T08:46:17;-0.20;99.90
15617;DHT22;7908;51.688;7.130;2023-03-01T08:48:45;-0.20;99.90
15617;DHT22;7908;51.688;7.130;2023-03-01T08:51:17;-0.10;99.90
15617;DHT22;7908;51.688;7.130;2023-03-01T08:53:46;-0.10;99.90
15617;DHT22;7908;51.688;7.130;2023-03-01T08:56:15;0.10;99.90
15617;DHT22;7908;51.688;7.130;2023-03-01T08:58:48;0.20;99.90
15617;DHT22;7908;51.688;7.130;2023-03-01T09:01:18;0.20;99.90
15617;DHT22;7908;51.688;7.130;2023-03-01T09:03:47;0.30;99.90
15617;DHT22;7908;51.688;7.130;2023-03-01T09:06:16;0.30;99.90
15617;DHT22;7908;51.688;7.130;2023-03-01T09:08:46;0.30;99.90
15617;DHT22;7908;51.688;7.130;2023-03-01T09:11:17;0.50;99.90
15617;DHT22;7908;51.688;7.130;2023-03-01T09:13:49;0.60;99.90
15617;DHT22;7908;51.688;7.130;2023-03-01T09:16:19;0.80;99.90
15617;DHT22;7908;51.688;7.130;2023-03-01T09:18:50;0.80;99.90
15617;DHT22;7908;51.688;7.130;2023-03-01T09:21:20;1.00;99.90
15617;DHT22;7908;51.688;7.130;2023-03-01T09:24:06;1.10;99.90
15617;DHT22;7908;51.688;7.130;2023-03-01T09:26:34;1.10;99.90
15617;DHT22;7908;51.688;7.130;2023-03-01T09:29:06;1.20;99.90
15617;DHT22;7908;51.688;7.130;2023-03-01T09:31:37;1.30;99.90
15617;DHT22;7908;51.688;7.130;2023-03-01T09:34:06;1.40;99.90
15617;DHT22;7908;51.688;7.130;2023-03-01T09:36:35;1.40;99.90
15617;DHT22;7908;51.688;7.130;2023-03-01T09:39:04;1.50;99.90
15617;DHT22;7908;51.688;7.130;2023-03-01T09:41:44;1.60;99.90
15617;DHT22;7908;51.688;7.130;2023-03-01T09:44:27;1.60;99.90
15617;DHT22;7908;51.688;7.130;2023-03-01T09:46:58;1.70;99.90
15617;DHT22;7908;51.688;7.130;2023-03-01T09:49:29;1.90;99.90
15617;DHT22;7908;51.688;7.130;2023-03-01T09:52:03;1.90;99.90
15617;DHT22;7908;51.688;7.130;2023-03-01T09:54:33;1.90;99.90
15617;DHT22;7908;51.688;7.130;2023-03-01T09:57:16;2.00;99.90
15617;DHT22;7908;51.688;7.130;2023-03-01T09:59:59;2.00;99.90
15617;DHT22;7908;51.688;7.130;2023-03-01T10:02:38;2.10;99.90
15617;DHT22;7908;51.688;7.130;2023-03-01T10:05:19;2.20;99.90
15617;DHT22;7908;51.688;7.130;2023-03-01T10:07:57;2.20;99.90
15617;DHT22;7908;51.688;7.130;2023-03-01T10:10:31;2.40;99.90
15617;DHT22;7908;51.688;7.130;2023-03-01T10:13:03;2.40;99.90
15617;DHT22;7908;51.688;7.130;2023-03-01T10:15:38;2.50;99.90
15617;DHT22;7908;51.688;7.130;2023-03-01T10:18:13;2.60;99.90
15617;DHT22;7908;51.688;7.130;2023-03-01T10:20:48;2.60;99.90
15617;DHT22;7908;51.688;7.130;2023-03-01T10:23:19;2.70;99.90
15617;DHT22;7908;51.688;7.130;2023-03-01T10:25:59;2.70;99.90
15617;DHT22;7908;51.688;7.130;2023-03-01T10:28:38;2.70;99.90
15617;DHT22;7908;51.688;7.130;2023-03-01T10:31:13;2.80;99.90
15617;DHT22;7908;51.688;7.130;2023-03-01T10:33:44;2.80;99.90
15617;DHT22;7908;51.688;7.130;2023-03-01T10:36:15;2.80;99.90
15617;DHT22;7908;51.688;7.130;2023-03-01T10:38:50;2.90;99.90
15617;DHT22;7908;51.688;7.130;2023-03-01T10:41:25;2.90;99.90
15617;DHT22;7908;51.688;7.130;2023-03-01T10:43:56;3.00;99.90
15617;DHT22;7908;51.688;7.130;2023-03-01T10:46:29;3.00;99.90
15617;DHT22;7908;51.688;7.130;2023-03-01T10:49:07;3.00;99.90
15617;DHT22;7908;51.688;7.130;2023-03-01T10:51:41;3.00;99.90
15617;DHT22;7908;51.688;7.130;2023-03-01T10:54:22;3.00;99.90
15617;DHT22;7908;51.688;7.130;2023-03-01T10:56:55;3.20;99.90
15617;DHT22;7908;51.688;7.130;2023-03-01T10:59:29;3.30;99.90
15617;DHT22;7908;51.688;7.130;2023-03-01T11:02:15;3.40;99.90
15617;DHT22;7908;51.688;7.130;2023-03-01T11:04:59;3.40;99.90
15617;DHT22;7908;51.688;7.130;2023-03-01T11:07:29;3.40;99.90
15617;DHT22;7908;51.688;7.130;2023-03-01T11:09:58;3.50;99.90
15617;DHT22;7908;51.688;7.130;2023-03-01T11:12:33;3.50;99.90
15617;DHT22;7908;51.688;7.130;2023-03-01T11:15:24;3.50;99.90
15617;DHT22;7908;51.688;7.130;2023-03-01T11:18:03;3.50;99.90
15617;DHT22;7908;51.688;7.130;2023-03-01T11:20:40;3.60;99.90
15617;DHT22;7908;51.688;7.130;2023-03-01T11:23:13;3.60;99.90
15617;DHT22;7908;51.688;7.130;2023-03-01T11:25:49;3.60;99.90
15617;DHT22;7908;51.688;7.130;2023-03-01T11:28:22;3.60;99.90
15617;DHT22;7908;51.688;7.130;2023-03-01T11:30:57;3.60;99.90
15617;DHT22;7908;51.688;7.130;2023-03-01T11:33:41;3.60;99.90
15617;DHT22;7908;51.688;7.130;2023-03-01T11:36:19;3.60;99.90
15617;DHT22;7908;51.688;7.130;2023-03-01T11:38:51;3.80;99.90
15617;DHT22;7908;51.688;7.130;2023-03-01T11:41:25;3.80;99.90
15617;DHT22;7908;51.688;7.130;2023-03-01T11:43:57;3.90;99.90
15617;DHT22;7908;51.688;7.130;2023-03-01T11:49:45;3.90;99.90
15617;DHT22;7908;51.688;7.130;2023-03-01T11:52:24;3.90;99.90
15617;DHT22;7908;51.688;7.130;2023-03-01T11:55:14;3.90;99.90
15617;DHT22;7908;51.688;7.130;2023-03-01T11:57:56;3.90;99.90
15617;DHT22;7908;51.688;7.130;2023-03-01T12:00:43;4.00;99.90
15617;DHT22;7908;51.688;7.130;2023-03-01T12:06:30;4.00;99.90
15617;DHT22;7908;51.688;7.130;2023-03-01T12:09:16;4.00;99.90
15617;DHT22;7908;51.688;7.130;2023-03-01T12:12:00;4.10;99.90
15617;DHT22;7908;51.688;7.130;2023-03-01T12:14:46;4.20;99.90
15617;DHT22;7908;51.688;7.130;2023-03-01T12:17:41;4.20;99.90
15617;DHT22;7908;51.688;7.130;2023-03-01T12:20:21;4.30;99.90
15617;DHT22;7908;51.688;7.130;2023-03-01T12:23:10;4.30;99.90
15617;DHT22;7908;51.688;7.130;2023-03-01T12:25:55;4.30;99.90
15617;DHT22;7908;51.688;7.130;2023-03-01T12:28:42;4.40;99.90
15617;DHT22;7908;51.688;7.130;2023-03-01T12:31:44;4.50;99.90
15617;DHT22;7908;51.688;7.130;2023-03-01T12:34:39;4.50;99.90
15617;DHT22;7908;51.688;7.130;2023-03-01T12:37:22;4.50;99.90
15617;DHT22;7908;51.688;7.130;2023-03-01T12:40:14;4.50;99.90
15617;DHT22;7908;51.688;7.130;2023-03-01T12:42:50;4.60;99.90
15617;DHT22;7908;51.688;7.130;2023-03-01T12:45:40;4.60;99.90
15617;DHT22;7908;51.688;7.130;2023-03-01T12:48:26;4.60;99.90
15617;DHT22;7908;51.688;7.130;2023-03-01T12:51:02;4.70;99.90
15617;DHT22;7908;51.688;7.130;2023-03-01T12:53:36;4.60;99.90
15617;DHT22;7908;51.688;7.130;2023-03-01T12:56:09;4.60;99.90
15617;DHT22;7908;51.688;7.130;2023-03-01T12:58:45;4.70;99.90
15617;DHT22;7908;51.688;7.130;2023-03-01T13:01:31;4.80;99.90
15617;DHT22;7908;51.688;7.130;2023-03-01T13:04:15;4.90;99.90
15617;DHT22;7908;51.688;7.130;2023-03-01T13:06:55;4.90;99.90
15617;DHT22;7908;51.688;7.130;2023-03-01T13:09:30;4.90;99.90
15617;DHT22;7908;51.688;7.130;2023-03-01T13:12:50;4.90;99.90
15617;DHT22;7908;51.688;7.130;2023-03-01T13:15:30;4.90;99.90
15617;DHT22;7908;51.688;7.130;2023-03-01T13:18:03;4.90;99.90
15617;DHT22;7908;51.688;7.130;2023-03-01T13:20:44;4.90;99.90
15617;DHT22;7908;51.688;7.130;2023-03-01T13:23:25;5.00;99.90
15617;DHT22;7908;51.688;7.130;2023-03-01T13:26:10;5.10;99.90
15617;DHT22;7908;51.688;7.130;2023-03-01T13:28:53;5.10;99.90
15617;DHT22;7908;51.688;7.130;2023-03-01T13:31:57;5.10;99.90
15617;DHT22;7908;51.688;7.130;2023-03-01T13:34:43;5.20;99.90
15617;DHT22;7908;51.688;7.130;2023-03-01T13:37:20;5.10;99.90
15617;DHT22;7908;51.688;7.130;2023-03-01T13:39:49;5.20;99.90
15617;DHT22;7908;51.688;7.130;2023-03-01T13:42:37;5.20;99.90
15617;DHT22;7908;51.688;7.130;2023-03-01T13:45:19;5.20;99.90
15617;DHT22;7908;51.688;7.130;2023-03-01T13:47:52;5.30;99.90
15617;DHT22;7908;51.688;7.130;2023-03-01T13:50:25;5.30;99.90
15617;DHT22;7908;51.688;7.130;2023-03-01T13:52:57;5.30;99.90
15617;DHT22;7908;51.688;7.130;2023-03-01T13:55:37;5.30;99.90
15617;DHT22;7908;51.688;7.130;2023-03-01T13:58:16;5.30;99.90
15617;DHT22;7908;51.688;7.130;2023-03-01T14:00:55;5.30;99.90
15617;DHT22;7908;51.688;7.130;2023-03-01T14:03:25;5.30;99.90
15617;DHT22;7908;51.688;7.130;2023-03-01T14:06:01;5.40;99.90
15617;DHT22;7908;51.688;7.130;2023-03-01T14:08:42;5.40;99.90
15617;DHT22;7908;51.688;7.130;2023-03-01T14:14:46;5.50;99.90
15617;DHT22;7908;51.688;7.130;2023-03-01T14:17:36;5.40;99.90
15617;DHT22;7908;51.688;7.130;2023-03-01T14:22:42;5.30;99.90
15617;DHT22;7908;51.688;7.130;2023-03-01T14:25:25;5.30;99.90
15617;DHT22;7908;51.688;7.130;2023-03-01T14:27:57;5.30;99.90
15617;DHT22;7908;51.688;7.130;2023-03-01T14:30:35;5.30;99.90
15617;DHT22;7908;51.688;7.130;2023-03-01T14:33:20;5.30;99.90
15617;DHT22;7908;51.688;7.130;2023-03-01T14:35:55;5.40;99.90
15617;DHT22;7908;51.688;7.130;2023-03-01T14:38:32;5.40;99.90
15617;DHT22;7908;51.688;7.130;2023-03-01T14:41:05;5.40;99.90
15617;DHT22;7908;51.688;7.130;2023-03-01T14:43:35;5.40;99.90
15617;DHT22;7908;51.688;7.130;2023-03-01T14:46:06;5.40;99.90
15617;DHT22;7908;51.688;7.130;2023-03-01T14:48:36;5.40;99.90
15617;DHT22;7908;51.688;7.130;2023-03-01T14:51:06;5.40;99.90
15617;DHT22;7908;51.688;7.130;2023-03-01T14:53:34;5.50;99.90
15617;DHT22;7908;51.688;7.130;2023-03-01T14:56:17;5.50;99.90
15617;DHT22;7908;51.688;7.130;2023-03-01T14:58:50;5.60;99.90
15617;DHT22;7908;51.688;7.130;2023-03-01T15:01:20;5.60;99.90
15617;DHT22;7908;51.688;7.130;2023-03-01T15:03:53;5.60;99.90
15617;DHT22;7908;51.688;7.130;2023-03-01T15:06:26;5.50;99.90
15617;DHT22;7908;51.688;7.130;2023-03-01T15:08:59;5.60;99.90
15617;DHT22;7908;51.688;7.130;2023-03-01T15:11:30;5.60;99.90
15617;DHT22;7908;51.688;7.130;2023-03-01T15:14:00;5.50;99.90
15617;DHT22;7908;51.688;7.130;2023-03-01T15:16:30;5.50;99.90
15617;DHT22;7908;51.688;7.130;2023-03-01T15:19:07;5.50;99.90
15617;DHT22;7908;51.688;7.130;2023-03-01T15:21:37;5.50;99.90
15617;DHT22;7908;51.688;7.130;2023-03-01T15:24:18;5.50;99.90
15617;DHT22;7908;51.688;7.130;2023-03-01T15:26:54;5.50;99.90
15617;DHT22;7908;51.688;7.130;2023-03-01T15:29:29;5.50;99.90
15617;DHT22;7908;51.688;7.130;2023-03-01T15:32:03;5.40;99.90
15617;DHT22;7908;51.688;7.130;2023-03-01T15:34:36;5.40;99.90
15617;DHT22;7908;51.688;7.130;2023-03-01T15:37:34;5.40;99.90
15617;DHT22;7908;51.688;7.130;2023-03-01T15:40:00;5.40;99.90
15617;DHT22;7908;51.688;7.130;2023-03-01T15:42:37;5.40;99.90
15617;DHT22;7908;51.688;7.130;2023-03-01T15:45:19;5.40;99.90
15617;DHT22;7908;51.688;7.130;2023-03-01T15:47:50;5.30;99.90
15617;DHT22;7908;51.688;7.130;2023-03-01T15:50:24;5.30;99.90
15617;DHT22;7908;51.688;7.130;2023-03-01T15:52:55;5.30;99.90
15617;DHT22;7908;51.688;7.130;2023-03-01T15:55:26;5.30;99.90
15617;DHT22;7908;51.688;7.130;2023-03-01T15:58:01;5.30;99.90
15617;DHT22;7908;51.688;7.130;2023-03-01T16:00:31;5.30;99.90
15617;DHT22;7908;51.688;7.130;2023-03-01T16:02:59;5.30;99.90
15617;DHT22;7908;51.688;7.130;2023-03-01T16:05:32;5.40;99.80
15617;DHT22;7908;51.688;7.130;2023-03-01T16:08:02;5.30;99.90
15617;DHT22;7908;51.688;7.130;2023-03-01T16:10:33;5.30;99.90
15617;DHT22;7908;51.688;7.130;2023-03-01T16:13:02;5.20;99.90
15617;DHT22;7908;51.688;7.130;2023-03-01T16:15:35;5.20;99.90
15617;DHT22;7908;51.688;7.130;2023-03-01T16:18:05;5.20;99.90
15617;DHT22;7908;51.688;7.130;2023-03-01T16:20:39;5.20;99.90
15617;DHT22;7908;51.688;7.130;2023-03-01T16:23:10;5.10;99.90
15617;DHT22;7908;51.688;7.130;2023-03-01T16:25:39;5.20;99.90
15617;DHT22;7908;51.688;7.130;2023-03-01T16:28:08;5.10;99.90
15617;DHT22;7908;51.688;7.130;2023-03-01T16:30:38;5.10;99.90
15617;DHT22;7908;51.688;7.130;2023-03-01T16:33:08;5.10;99.90
15617;DHT22;7908;51.688;7.130;2023-03-01T16:35:55;5.10;99.90
15617;DHT22;7908;51.688;7.130;2023-03-01T16:38:30;5.00;99.90
15617;DHT22;7908;51.688;7.130;2023-03-01T16:41:00;4.90;99.90
15617;DHT22;7908;51.688;7.130;2023-03-01T16:43:29;4.90;99.90
15617;DHT22;7908;51.688;7.130;2023-03-01T16:45:59;4.80;99.90